sensor_id;sensor_type;location;lat;lon;timestamp;pressure;altitude;pressure_sealevel;temperature;humidity
61035;BME280;46916;40.564;-7.958;2023-09-08T00:00:49;97352.31;;;22.15;69.73
61035;BME280;46916;40.564;-7.958;2023-09-08T00:02:50;97361.72;;;22.11;70.00
61035;BME280;46916;40.564;-7.958;2023-09-08T00:04:51;97368.69;;;22.06;70.38
61035;BME280;46916;40.564;-7.958;2023-09-08T00:06:52;97369.91;;;22.03;70.63
61035;BME280;46916;40.564;-7.958;2023-09-08T00:08:52;97364.16;;;21.99;70.85
61035;BME280;46916;40.564;-7.958;2023-09-08T00:10:53;97367.66;;;21.93;70.94
61035;BME280;46916;40.564;-7.958;2023-09-08T00:12:54;97359.44;;;21.88;71.47
61035;BME280;46916;40.564;-7.958;2023-09-08T00:14:54;97360.44;;;21.87;71.59
61035;BME280;46916;40.564;-7.958;2023-09-08T00:16:55;97353.09;;;21.89;71.46
61035;BME280;46916;40.564;-7.958;2023-09-08T00:18:56;97359.63;;;21.87;71.66
61035;BME280;46916;40.564;-7.958;2023-09-08T00:20:58;97362.09;;;21.82;71.57
61035;BME280;46916;40.564;-7.958;2023-09-08T00:22:59;97355.75;;;21.76;71.77
61035;BME280;46916;40.564;-7.958;2023-09-08T00:25:00;97362.06;;;21.68;71.90
61035;BME280;46916;40.564;-7.958;2023-09-08T00:27:00;97364.09;;;21.66;72.21
61035;BME280;46916;40.564;-7.958;2023-09-08T00:29:02;97360.59;;;21.59;72.63
61035;BME280;46916;40.564;-7.958;2023-09-08T00:31:02;97365.28;;;21.50;72.92
61035;BME280;46916;40.564;-7.958;2023-09-08T00:33:03;97364.88;;;21.47;72.91
61035;BME280;46916;40.564;-7.958;2023-09-08T00:35:07;97363.63;;;21.43;73.28
61035;BME280;46916;40.564;-7.958;2023-09-08T00:37:08;97363.22;;;21.39;73.20
61035;BME280;46916;40.564;-7.958;2023-09-08T00:39:10;97354.22;;;21.40;73.64
61035;BME280;46916;40.564;-7.958;2023-09-08T00:41:10;97354.22;;;21.40;73.62
61035;BME280;46916;40.564;-7.958;2023-09-08T00:43:11;97355.44;;;21.44;73.79
61035;BME280;46916;40.564;-7.958;2023-09-08T00:45:12;97353.81;;;21.43;73.23
61035;BME280;46916;40.564;-7.958;2023-09-08T00:47:13;97348.50;;;21.43;73.33
61035;BME280;46916;40.564;-7.958;2023-09-08T00:49:13;97350.72;;;21.46;73.13
61035;BME280;46916;40.564;-7.958;2023-09-08T00:51:14;97348.06;;;21.46;73.42
61035;BME280;46916;40.564;-7.958;2023-09-08T00:53:15;97340.25;;;21.38;73.57
61035;BME280;46916;40.564;-7.958;2023-09-08T00:55:18;97341.28;;;21.37;73.48
61035;BME280;46916;40.564;-7.958;2023-09-08T00:57:19;97337.16;;;21.35;73.58
61035;BME280;46916;40.564;-7.958;2023-09-08T00:59:20;97335.88;;;21.31;73.99
61035;BME280;46916;40.564;-7.958;2023-09-08T01:01:21;97338.16;;;21.27;74.20
61035;BME280;46916;40.564;-7.958;2023-09-08T01:03:22;97331.78;;;21.21;74.26
61035;BME280;46916;40.564;-7.958;2023-09-08T01:05:22;97334.00;;;21.18;74.58
61035;BME280;46916;40.564;-7.958;2023-09-08T01:07:23;97330.91;;;21.14;74.92
61035;BME280;46916;40.564;-7.958;2023-09-08T01:09:24;97323.34;;;21.11;74.76
61035;BME280;46916;40.564;-7.958;2023-09-08T01:11:25;97325.75;;;21.06;75.17
61035;BME280;46916;40.564;-7.958;2023-09-08T01:13:26;97322.69;;;21.02;75.18
61035;BME280;46916;40.564;-7.958;2023-09-08T01:15:27;97319.41;;;21.00;75.68
61035;BME280;46916;40.564;-7.958;2023-09-08T01:17:27;97312.44;;;20.99;75.67
61035;BME280;46916;40.564;-7.958;2023-09-08T01:19:28;97311.19;;;20.95;76.00
61035;BME280;46916;40.564;-7.958;2023-09-08T01:26:19;97305.00;;;20.88;76.30
61035;BME280;46916;40.564;-7.958;2023-09-08T01:28:22;97304.41;;;20.86;76.75
61035;BME280;46916;40.564;-7.958;2023-09-08T01:30:25;97301.09;;;20.84;76.47
61035;BME280;46916;40.564;-7.958;2023-09-08T01:32:28;97301.91;;;20.85;76.54
61035;BME280;46916;40.564;-7.958;2023-09-08T01:34:30;97302.13;;;20.83;76.63
61035;BME280;46916;40.564;-7.958;2023-09-08T01:36:31;97294.75;;;20.85;76.67
61035;BME280;46916;40.564;-7.958;2023-09-08T01:38:31;97295.34;;;20.81;76.85
61035;BME280;46916;40.564;-7.958;2023-09-08T01:40:33;97303.56;;;20.86;76.51
61035;BME280;46916;40.564;-7.958;2023-09-08T01:42:33;97307.88;;;20.87;76.43
61035;BME280;46916;40.564;-7.958;2023-09-08T01:44:34;97300.28;;;20.84;76.49
61035;BME280;46916;40.564;-7.958;2023-09-08T01:46:36;97303.75;;;20.84;76.63
61035;BME280;46916;40.564;-7.958;2023-09-08T01:48:37;97301.31;;;20.83;76.53
61035;BME280;46916;40.564;-7.958;2023-09-08T01:50:37;97301.69;;;20.80;76.46
61035;BME280;46916;40.564;-7.958;2023-09-08T01:52:38;97298.22;;;20.79;77.05
61035;BME280;46916;40.564;-7.958;2023-09-08T01:54:38;97297.78;;;20.75;76.55
61035;BME280;46916;40.564;-7.958;2023-09-08T01:56:39;97294.91;;;20.77;76.83
61035;BME280;46916;40.564;-7.958;2023-09-08T01:58:41;97297.59;;;20.77;76.68
61035;BME280;46916;40.564;-7.958;2023-09-08T02:00:42;97284.69;;;20.74;76.99
61035;BME280;46916;40.564;-7.958;2023-09-08T02:02:42;97285.31;;;20.76;77.20
61035;BME280;46916;40.564;-7.958;2023-09-08T02:04:43;97285.09;;;20.77;76.96
61035;BME280;46916;40.564;-7.958;2023-09-08T02:06:43;97288.38;;;20.80;76.67
61035;BME280;46916;40.564;-7.958;2023-09-08T02:08:44;97285.53;;;20.81;76.91
61035;BME280;46916;40.564;-7.958;2023-09-08T02:10:45;97273.47;;;20.85;76.47
61035;BME280;46916;40.564;-7.958;2023-09-08T02:12:46;97282.69;;;20.83;76.74
61035;BME280;46916;40.564;-7.958;2023-09-08T02:14:46;97277.53;;;20.81;76.77
61035;BME280;46916;40.564;-7.958;2023-09-08T02:16:47;97271.38;;;20.74;77.03
61035;BME280;46916;40.564;-7.958;2023-09-08T02:18:50;97276.28;;;20.70;76.93
61035;BME280;46916;40.564;-7.958;2023-09-08T02:20:50;97271.94;;;20.63;77.51
61035;BME280;46916;40.564;-7.958;2023-09-08T02:22:53;97262.50;;;20.60;77.70
61035;BME280;46916;40.564;-7.958;2023-09-08T02:24:55;97270.25;;;20.55;77.78
61035;BME280;46916;40.564;-7.958;2023-09-08T02:26:57;97266.97;;;20.53;77.61
61035;BME280;46916;40.564;-7.958;2023-09-08T02:29:00;97254.28;;;20.55;77.33
61035;BME280;46916;40.564;-7.958;2023-09-08T02:31:01;97251.44;;;20.57;77.35
61035;BME280;46916;40.564;-7.958;2023-09-08T02:33:02;97254.34;;;20.62;76.92
61035;BME280;46916;40.564;-7.958;2023-09-08T02:35:03;97242.66;;;20.63;76.89
61035;BME280;46916;40.564;-7.958;2023-09-08T02:37:04;97246.34;;;20.62;76.88
61035;BME280;46916;40.564;-7.958;2023-09-08T02:39:05;97245.50;;;20.61;76.82
61035;BME280;46916;40.564;-7.958;2023-09-08T02:41:07;97242.03;;;20.61;76.93
61035;BME280;46916;40.564;-7.958;2023-09-08T02:43:08;97238.56;;;20.60;77.08
61035;BME280;46916;40.564;-7.958;2023-09-08T02:45:09;97245.09;;;20.58;77.15
61035;BME280;46916;40.564;-7.958;2023-09-08T02:47:10;97238.75;;;20.59;76.79
61035;BME280;46916;40.564;-7.958;2023-09-08T02:49:13;97237.97;;;20.65;76.80
61035;BME280;46916;40.564;-7.958;2023-09-08T02:51:14;97238.97;;;20.64;76.89
61035;BME280;46916;40.564;-7.958;2023-09-08T02:53:15;97231.59;;;20.59;76.50
61035;BME280;46916;40.564;-7.958;2023-09-08T02:55:15;97224.03;;;20.63;76.53
61035;BME280;46916;40.564;-7.958;2023-09-08T02:57:16;97221.81;;;20.66;76.60
61035;BME280;46916;40.564;-7.958;2023-09-08T02:59:17;97224.47;;;20.66;76.28
61035;BME280;46916;40.564;-7.958;2023-09-08T03:01:17;97218.13;;;20.67;76.37
61035;BME280;46916;40.564;-7.958;2023-09-08T03:03:20;97222.19;;;20.63;76.35
61035;BME280;46916;40.564;-7.958;2023-09-08T03:05:21;97217.31;;;20.67;76.11
61035;BME280;46916;40.564;-7.958;2023-09-08T03:07:22;97209.94;;;20.69;76.08
61035;BME280;46916;40.564;-7.958;2023-09-08T03:09:23;97207.47;;;20.67;76.22
61035;BME280;46916;40.564;-7.958;2023-09-08T03:11:23;97208.91;;;20.63;76.34
61035;BME280;46916;40.564;-7.958;2023-09-08T03:13:24;97207.44;;;20.61;76.08
61035;BME280;46916;40.564;-7.958;2023-09-08T03:15:26;97205.78;;;20.53;76.09
61035;BME280;46916;40.564;-7.958;2023-09-08T03:17:29;97202.72;;;20.49;75.86
61035;BME280;46916;40.564;-7.958;2023-09-08T03:19:30;97203.72;;;20.48;76.16
61035;BME280;46916;40.564;-7.958;2023-09-08T03:21:31;97202.28;;;20.52;75.88
61035;BME280;46916;40.564;-7.958;2023-09-08T03:23:31;97199.38;;;20.47;75.65
61035;BME280;46916;40.564;-7.958;2023-09-08T03:25:32;97199.38;;;20.47;75.80
61035;BME280;46916;40.564;-7.958;2023-09-08T03:27:33;97192.22;;;20.48;75.51
61035;BME280;46916;40.564;-7.958;2023-09-08T03:29:33;97195.91;;;20.47;75.61
61035;BME280;46916;40.564;-7.958;2023-09-08T03:31:34;97204.91;;;20.46;75.71
61035;BME280;46916;40.564;-7.958;2023-09-08T03:33:35;97201.59;;;20.37;75.96
61035;BME280;46916;40.564;-7.958;2023-09-08T03:35:36;97203.00;;;20.33;76.18
61035;BME280;46916;40.564;-7.958;2023-09-08T03:37:36;97199.50;;;20.33;76.33
61035;BME280;46916;40.564;-7.958;2023-09-08T03:39:38;97198.09;;;20.37;75.72
61035;BME280;46916;40.564;-7.958;2023-09-08T03:41:39;97198.94;;;20.37;75.46
61035;BME280;46916;40.564;-7.958;2023-09-08T03:43:40;97191.78;;;20.44;75.65
61035;BME280;46916;40.564;-7.958;2023-09-08T03:45:40;97186.75;;;20.49;75.34
61035;BME280;46916;40.564;-7.958;2023-09-08T03:47:42;97192.47;;;20.53;75.12
61035;BME280;46916;40.564;-7.958;2023-09-08T03:49:43;97196.97;;;20.52;74.85
61035;BME280;46916;40.564;-7.958;2023-09-08T03:51:44;97190.88;;;20.59;74.59
61035;BME280;46916;40.564;-7.958;2023-09-08T03:53:44;97188.38;;;20.57;74.66
61035;BME280;46916;40.564;-7.958;2023-09-08T03:55:45;97185.94;;;20.56;74.64
61035;BME280;46916;40.564;-7.958;2023-09-08T03:57:48;97181.81;;;20.53;74.91
61035;BME280;46916;40.564;-7.958;2023-09-08T03:59:49;97185.34;;;20.53;75.00
61035;BME280;46916;40.564;-7.958;2023-09-08T04:01:50;97182.69;;;20.53;74.91
61035;BME280;46916;40.564;-7.958;2023-09-08T04:03:51;97189.63;;;20.55;74.96
61035;BME280;46916;40.564;-7.958;2023-09-08T04:05:51;97190.44;;;20.55;74.37
61035;BME280;46916;40.564;-7.958;2023-09-08T04:07:52;97188.59;;;20.56;74.38
61035;BME280;46916;40.564;-7.958;2023-09-08T04:09:52;97188.00;;;20.53;74.60
61035;BME280;46916;40.564;-7.958;2023-09-08T04:11:53;97187.34;;;20.51;74.54
61035;BME280;46916;40.564;-7.958;2023-09-08T04:13:55;97186.75;;;20.49;74.58
61035;BME280;46916;40.564;-7.958;2023-09-08T04:15:56;97185.09;;;20.48;74.47
61035;BME280;46916;40.564;-7.958;2023-09-08T04:17:57;97180.75;;;20.47;74.24
61035;BME280;46916;40.564;-7.958;2023-09-08T04:19:58;97185.91;;;20.49;74.41
61035;BME280;46916;40.564;-7.958;2023-09-08T04:21:59;97181.44;;;20.49;74.34
61035;BME280;46916;40.564;-7.958;2023-09-08T04:24:00;97174.44;;;20.48;74.31
61035;BME280;46916;40.564;-7.958;2023-09-08T04:26:00;97189.81;;;20.53;74.02
61035;BME280;46916;40.564;-7.958;2023-09-08T04:28:02;97181.66;;;20.55;74.36
61035;BME280;46916;40.564;-7.958;2023-09-08T04:30:04;97183.28;;;20.56;74.34
61035;BME280;46916;40.564;-7.958;2023-09-08T04:32:05;97184.91;;;20.57;74.43
61035;BME280;46916;40.564;-7.958;2023-09-08T04:34:09;97191.25;;;20.56;74.36
61035;BME280;46916;40.564;-7.958;2023-09-08T04:36:10;97194.75;;;20.56;74.52
61035;BME280;46916;40.564;-7.958;2023-09-08T04:38:11;97191.91;;;20.58;74.24
61035;BME280;46916;40.564;-7.958;2023-09-08T04:40:12;97189.41;;;20.56;74.41
61035;BME280;46916;40.564;-7.958;2023-09-08T04:42:13;97192.47;;;20.53;74.07
61035;BME280;46916;40.564;-7.958;2023-09-08T04:44:14;97181.22;;;20.51;74.49
61035;BME280;46916;40.564;-7.958;2023-09-08T04:46:15;97186.53;;;20.51;74.41
61035;BME280;46916;40.564;-7.958;2023-09-08T04:48:16;97180.72;;;20.41;74.51
61035;BME280;46916;40.564;-7.958;2023-09-08T04:50:16;97180.31;;;20.37;74.62
61035;BME280;46916;40.564;-7.958;2023-09-08T04:52:17;97181.31;;;20.36;74.41
61035;BME280;46916;40.564;-7.958;2023-09-08T04:54:18;97179.91;;;20.34;74.48
61035;BME280;46916;40.564;-7.958;2023-09-08T04:56:21;97176.97;;;20.28;74.69
61035;BME280;46916;40.564;-7.958;2023-09-08T04:58:22;97166.72;;;20.19;74.93
61035;BME280;46916;40.564;-7.958;2023-09-08T05:00:24;97171.75;;;20.07;75.18
61035;BME280;46916;40.564;-7.958;2023-09-08T05:02:25;97161.13;;;20.00;75.80
61035;BME280;46916;40.564;-7.958;2023-09-08T05:04:26;97164.31;;;19.96;75.82
61035;BME280;46916;40.564;-7.958;2023-09-08T05:06:27;97161.44;;;19.91;76.42
61035;BME280;46916;40.564;-7.958;2023-09-08T05:08:28;97161.00;;;19.87;76.51
61035;BME280;46916;40.564;-7.958;2023-09-08T05:10:29;97166.91;;;19.83;76.86
61035;BME280;46916;40.564;-7.958;2023-09-08T05:12:29;97163.44;;;19.82;76.89
61035;BME280;46916;40.564;-7.958;2023-09-08T05:14:30;97156.72;;;19.86;77.10
61035;BME280;46916;40.564;-7.958;2023-09-08T05:16:31;97166.75;;;19.84;77.15
61035;BME280;46916;40.564;-7.958;2023-09-08T05:18:56;97166.28;;;19.81;77.29
61035;BME280;46916;40.564;-7.958;2023-09-08T05:20:57;97169.94;;;19.79;77.34
61035;BME280;46916;40.564;-7.958;2023-09-08T05:22:57;97169.13;;;19.79;77.33
61035;BME280;46916;40.564;-7.958;2023-09-08T05:24:58;97170.78;;;19.80;77.17
61035;BME280;46916;40.564;-7.958;2023-09-08T05:26:59;97172.06;;;19.84;76.94
61035;BME280;46916;40.564;-7.958;2023-09-08T05:29:00;97180.88;;;19.91;76.64
61035;BME280;46916;40.564;-7.958;2023-09-08T05:31:01;97179.91;;;19.99;76.41
61035;BME280;46916;40.564;-7.958;2023-09-08T05:33:03;97180.75;;;20.06;75.94
61035;BME280;46916;40.564;-7.958;2023-09-08T05:35:04;97188.53;;;20.08;75.56
61035;BME280;46916;40.564;-7.958;2023-09-08T05:37:05;97183.84;;;20.10;75.28
61035;BME280;46916;40.564;-7.958;2023-09-08T05:39:06;97188.16;;;20.11;75.07
61035;BME280;46916;40.564;-7.958;2023-09-08T05:41:07;97193.25;;;20.06;74.82
61035;BME280;46916;40.564;-7.958;2023-09-08T05:43:08;97199.75;;;20.03;74.99
61035;BME280;46916;40.564;-7.958;2023-09-08T05:45:09;97191.53;;;19.98;74.99
61035;BME280;46916;40.564;-7.958;2023-09-08T05:47:11;97204.63;;;19.99;75.05
61035;BME280;46916;40.564;-7.958;2023-09-08T05:49:12;97208.91;;;19.94;74.92
61035;BME280;46916;40.564;-7.958;2023-09-08T05:51:14;97209.09;;;19.92;74.98
61035;BME280;46916;40.564;-7.958;2023-09-08T05:53:17;97207.44;;;19.91;75.04
61035;BME280;46916;40.564;-7.958;2023-09-08T05:55:18;97206.00;;;19.89;74.67
61035;BME280;46916;40.564;-7.958;2023-09-08T05:57:20;97206.81;;;19.89;74.72
61035;BME280;46916;40.564;-7.958;2023-09-08T05:59:21;97215.81;;;19.88;74.89
61035;BME280;46916;40.564;-7.958;2023-09-08T06:01:22;97220.56;;;19.93;75.30
61035;BME280;46916;40.564;-7.958;2023-09-08T06:03:23;97218.94;;;19.98;74.92
61035;BME280;46916;40.564;-7.958;2023-09-08T06:05:23;97226.34;;;20.03;74.68
61035;BME280;46916;40.564;-7.958;2023-09-08T06:07:24;97229.63;;;20.05;74.56
61035;BME280;46916;40.564;-7.958;2023-09-08T06:09:25;97228.59;;;20.06;74.69
61035;BME280;46916;40.564;-7.958;2023-09-08T06:11:26;97233.28;;;20.04;74.55
61035;BME280;46916;40.564;-7.958;2023-09-08T06:13:27;97240.84;;;20.00;74.80
61035;BME280;46916;40.564;-7.958;2023-09-08T06:15:27;97242.28;;;20.03;74.54
61035;BME280;46916;40.564;-7.958;2023-09-08T06:17:28;97242.09;;;20.04;74.69
61035;BME280;46916;40.564;-7.958;2023-09-08T06:19:29;97241.25;;;20.04;74.35
61035;BME280;46916;40.564;-7.958;2023-09-08T06:21:29;97241.47;;;20.02;74.67
61035;BME280;46916;40.564;-7.958;2023-09-08T06:23:30;97245.16;;;20.01;74.52
61035;BME280;46916;40.564;-7.958;2023-09-08T06:25:31;97246.16;;;20.00;74.69
61035;BME280;46916;40.564;-7.958;2023-09-08T06:27:31;97245.97;;;20.02;74.47
61035;BME280;46916;40.564;-7.958;2023-09-08T06:29:32;97244.34;;;20.01;74.67
61035;BME280;46916;40.564;-7.958;2023-09-08T06:31:33;97255.94;;;20.00;74.66
61035;BME280;46916;40.564;-7.958;2023-09-08T06:33:34;97251.50;;;20.00;74.54
61035;BME280;46916;40.564;-7.958;2023-09-08T06:35:34;97253.72;;;20.03;74.42
61035;BME280;46916;40.564;-7.958;2023-09-08T06:37:36;97253.72;;;20.03;74.60
61035;BME280;46916;40.564;-7.958;2023-09-08T06:39:37;97265.00;;;20.06;74.82
61035;BME280;46916;40.564;-7.958;2023-09-08T06:41:38;97268.28;;;20.08;74.87
61035;BME280;46916;40.564;-7.958;2023-09-08T06:43:39;97263.22;;;20.13;74.51
61035;BME280;46916;40.564;-7.958;2023-09-08T06:45:48;97280.81;;;20.14;74.57
61035;BME280;46916;40.564;-7.958;2023-09-08T06:47:54;97275.50;;;20.14;74.56
61035;BME280;46916;40.564;-7.958;2023-09-08T06:49:56;97271.59;;;20.10;74.94
61035;BME280;46916;40.564;-7.958;2023-09-08T06:51:57;97276.69;;;20.11;75.04
61035;BME280;46916;40.564;-7.958;2023-09-08T06:53:58;97283.09;;;20.17;74.82
61035;BME280;46916;40.564;-7.958;2023-09-08T06:56:04;97294.78;;;20.22;74.56
61035;BME280;46916;40.564;-7.958;2023-09-08T06:58:06;97298.06;;;20.24;74.06
61035;BME280;46916;40.564;-7.958;2023-09-08T07:00:07;97304.84;;;20.27;74.08
61035;BME280;46916;40.564;-7.958;2023-09-08T07:02:08;97299.13;;;20.30;74.37
61035;BME280;46916;40.564;-7.958;2023-09-08T07:04:09;97297.91;;;20.33;74.04
61035;BME280;46916;40.564;-7.958;2023-09-08T07:06:11;97291.38;;;20.35;74.00
61035;BME280;46916;40.564;-7.958;2023-09-08T07:08:12;97296.94;;;20.40;74.07
61035;BME280;46916;40.564;-7.958;2023-09-08T07:10:13;97293.88;;;20.43;74.29
61035;BME280;46916;40.564;-7.958;2023-09-08T07:12:13;97301.53;;;20.53;73.83
61035;BME280;46916;40.564;-7.958;2023-09-08T07:14:14;97299.75;;;20.60;73.80
61035;BME280;46916;40.564;-7.958;2023-09-08T07:16:15;97295.06;;;20.62;73.71
61035;BME280;46916;40.564;-7.958;2023-09-08T07:18:16;97292.41;;;20.62;73.24
61035;BME280;46916;40.564;-7.958;2023-09-08T07:20:17;97302.22;;;20.62;73.22
61035;BME280;46916;40.564;-7.958;2023-09-08T07:22:18;97300.19;;;20.64;73.45
61035;BME280;46916;40.564;-7.958;2023-09-08T07:24:19;97296.09;;;20.68;73.21
61035;BME280;46916;40.564;-7.958;2023-09-08T07:26:20;97294.31;;;20.75;72.88
61035;BME280;46916;40.564;-7.958;2023-09-08T07:28:21;97305.22;;;20.87;72.84
61035;BME280;46916;40.564;-7.958;2023-09-08T07:30:21;97299.28;;;20.91;72.90
61035;BME280;46916;40.564;-7.958;2023-09-08T07:32:22;97302.41;;;21.01;72.61
61035;BME280;46916;40.564;-7.958;2023-09-08T07:34:25;97301.22;;;21.17;71.88
61035;BME280;46916;40.564;-7.958;2023-09-08T07:36:26;97307.44;;;21.31;71.57
61035;BME280;46916;40.564;-7.958;2023-09-08T07:38:27;97308.91;;;21.40;70.98
61035;BME280;46916;40.564;-7.958;2023-09-08T07:40:28;97313.84;;;21.43;71.04
61035;BME280;46916;40.564;-7.958;2023-09-08T07:42:29;97312.81;;;21.44;71.00
61035;BME280;46916;40.564;-7.958;2023-09-08T07:44:30;97314.47;;;21.45;70.38
61035;BME280;46916;40.564;-7.958;2023-09-08T07:46:31;97321.38;;;21.33;70.56
61035;BME280;46916;40.564;-7.958;2023-09-08T07:48:32;97317.59;;;21.14;71.25
61035;BME280;46916;40.564;-7.958;2023-09-08T07:50:32;97306.94;;;21.08;71.63
61035;BME280;46916;40.564;-7.958;2023-09-08T07:52:33;97302.88;;;21.12;71.71
61035;BME280;46916;40.564;-7.958;2023-09-08T07:54:34;97319.09;;;21.30;71.42
61035;BME280;46916;40.564;-7.958;2023-09-08T07:56:34;97321.84;;;21.43;70.95
61035;BME280;46916;40.564;-7.958;2023-09-08T07:58:36;97312.84;;;21.58;70.51
61035;BME280;46916;40.564;-7.958;2023-09-08T08:00:37;97311.22;;;21.70;70.11
61035;BME280;46916;40.564;-7.958;2023-09-08T08:02:44;97314.50;;;21.79;69.71
61035;BME280;46916;40.564;-7.958;2023-09-08T08:04:45;97314.94;;;21.82;69.16
61035;BME280;46916;40.564;-7.958;2023-09-08T08:06:46;97314.13;;;21.82;69.18
61035;BME280;46916;40.564;-7.958;2023-09-08T08:08:48;97314.72;;;21.77;69.54
61035;BME280;46916;40.564;-7.958;2023-09-08T08:10:48;97326.19;;;21.71;69.63
61035;BME280;46916;40.564;-7.958;2023-09-08T08:12:49;97320.44;;;21.67;70.05
61035;BME280;46916;40.564;-7.958;2023-09-08T08:14:50;97318.63;;;21.68;70.06
61035;BME280;46916;40.564;-7.958;2023-09-08T08:16:51;97321.47;;;21.60;69.93
61035;BME280;46916;40.564;-7.958;2023-09-08T08:18:52;97316.94;;;21.54;70.68
61035;BME280;46916;40.564;-7.958;2023-09-08T08:20:52;97327.41;;;21.62;70.59
61035;BME280;46916;40.564;-7.958;2023-09-08T08:22:53;97315.34;;;21.72;70.44
61035;BME280;46916;40.564;-7.958;2023-09-08T08:24:53;97323.34;;;21.86;70.03
61035;BME280;46916;40.564;-7.958;2023-09-08T08:26:54;97323.53;;;21.91;69.97
61035;BME280;46916;40.564;-7.958;2023-09-08T08:28:55;97326.44;;;21.89;69.76
61035;BME280;46916;40.564;-7.958;2023-09-08T08:30:55;97322.94;;;21.95;69.61
61035;BME280;46916;40.564;-7.958;2023-09-08T08:32:57;97320.28;;;22.09;69.58
61035;BME280;46916;40.564;-7.958;2023-09-08T08:34:57;97319.69;;;22.20;69.31
61035;BME280;46916;40.564;-7.958;2023-09-08T08:36:58;97320.72;;;22.25;68.90
61035;BME280;46916;40.564;-7.958;2023-09-08T08:38:59;97325.84;;;22.27;69.25
61035;BME280;46916;40.564;-7.958;2023-09-08T08:41:04;97317.22;;;22.32;69.15
61035;BME280;46916;40.564;-7.958;2023-09-08T08:43:05;97316.59;;;22.36;68.85
61035;BME280;46916;40.564;-7.958;2023-09-08T08:45:06;97321.09;;;22.36;68.99
61035;BME280;46916;40.564;-7.958;2023-09-08T08:47:07;97325.41;;;22.37;68.83
61035;BME280;46916;40.564;-7.958;2023-09-08T08:49:09;97325.03;;;22.33;69.38
61035;BME280;46916;40.564;-7.958;2023-09-08T08:51:12;97328.50;;;22.34;69.14
61035;BME280;46916;40.564;-7.958;2023-09-08T08:53:13;97330.16;;;22.41;68.97
61035;BME280;46916;40.564;-7.958;2023-09-08T08:55:14;97322.56;;;22.38;69.49
61035;BME280;46916;40.564;-7.958;2023-09-08T08:57:16;97324.38;;;22.44;69.50
61035;BME280;46916;40.564;-7.958;2023-09-08T08:59:17;97331.75;;;22.49;69.26
61035;BME280;46916;40.564;-7.958;2023-09-08T09:01:18;97324.59;;;22.49;69.53
61035;BME280;46916;40.564;-7.958;2023-09-08T09:03:24;97325.59;;;22.55;69.93
61035;BME280;46916;40.564;-7.958;2023-09-08T09:05:26;97318.19;;;22.64;69.20
61035;BME280;46916;40.564;-7.958;2023-09-08T09:07:27;97311.41;;;22.68;69.25
61035;BME280;46916;40.564;-7.958;2023-09-08T09:09:28;97310.59;;;22.74;69.24
61035;BME280;46916;40.564;-7.958;2023-09-08T09:11:29;97304.16;;;22.82;69.02
61035;BME280;46916;40.564;-7.958;2023-09-08T09:13:31;97302.13;;;22.84;68.67
61035;BME280;46916;40.564;-7.958;2023-09-08T09:15:31;97301.06;;;22.85;68.74
61035;BME280;46916;40.564;-7.958;2023-09-08T09:17:36;97297.38;;;22.92;68.82
61035;BME280;46916;40.564;-7.958;2023-09-08T09:19:36;97303.72;;;22.98;68.15
61035;BME280;46916;40.564;-7.958;2023-09-08T09:21:45;97305.56;;;23.04;67.79
61035;BME280;46916;40.564;-7.958;2023-09-08T09:23:48;97306.59;;;23.03;68.07
61035;BME280;46916;40.564;-7.958;2023-09-08T09:25:48;97305.97;;;23.08;68.05
61035;BME280;46916;40.564;-7.958;2023-09-08T09:27:51;97308.59;;;23.14;67.92
61035;BME280;46916;40.564;-7.958;2023-09-08T09:29:52;97306.53;;;23.16;67.62
61035;BME280;46916;40.564;-7.958;2023-09-08T09:31:55;97298.53;;;23.10;67.26
61035;BME280;46916;40.564;-7.958;2023-09-08T09:34:03;97294.88;;;23.11;67.32
61035;BME280;46916;40.564;-7.958;2023-09-08T09:36:05;97298.94;;;23.13;67.18
61035;BME280;46916;40.564;-7.958;2023-09-08T09:38:07;97294.03;;;23.10;66.88
61035;BME280;46916;40.564;-7.958;2023-09-08T09:40:09;97302.88;;;23.11;66.57
61035;BME280;46916;40.564;-7.958;2023-09-08T09:42:11;97302.06;;;23.04;66.63
61035;BME280;46916;40.564;-7.958;2023-09-08T09:44:11;97306.19;;;22.99;67.12
61035;BME280;46916;40.564;-7.958;2023-09-08T09:46:13;97307.03;;;23.00;67.12
61035;BME280;46916;40.564;-7.958;2023-09-08T09:48:15;97318.53;;;23.01;66.99
61035;BME280;46916;40.564;-7.958;2023-09-08T09:50:27;97316.06;;;22.99;67.00
61035;BME280;46916;40.564;-7.958;2023-09-08T09:52:28;97309.47;;;23.02;66.99
61035;BME280;46916;40.564;-7.958;2023-09-08T09:54:32;97301.69;;;23.00;66.95
61035;BME280;46916;40.564;-7.958;2023-09-08T09:56:32;97306.78;;;23.02;66.94
61035;BME280;46916;40.564;-7.958;2023-09-08T09:58:35;97310.50;;;23.01;67.07
61035;BME280;46916;40.564;-7.958;2023-09-08T10:00:36;97310.50;;;23.01;66.89
61035;BME280;46916;40.564;-7.958;2023-09-08T10:02:37;97311.53;;;22.99;66.96
61035;BME280;46916;40.564;-7.958;2023-09-08T10:04:40;97307.84;;;23.01;67.28
61035;BME280;46916;40.564;-7.958;2023-09-08T10:06:41;97320.78;;;23.04;67.38
61035;BME280;46916;40.564;-7.958;2023-09-08T10:08:42;97318.69;;;23.06;67.04
61035;BME280;46916;40.564;-7.958;2023-09-08T10:10:45;97321.19;;;23.07;66.98
61035;BME280;46916;40.564;-7.958;2023-09-08T10:12:54;97331.41;;;23.10;66.89
61035;BME280;46916;40.564;-7.958;2023-09-08T10:14:56;97332.25;;;23.11;66.68
61035;BME280;46916;40.564;-7.958;2023-09-08T10:16:59;97336.97;;;23.09;66.72
61035;BME280;46916;40.564;-7.958;2023-09-08T10:19:04;97334.72;;;23.06;66.61
61035;BME280;46916;40.564;-7.958;2023-09-08T10:21:08;97333.09;;;23.05;66.65
61035;BME280;46916;40.564;-7.958;2023-09-08T10:23:23;97332.09;;;22.99;66.59
61035;BME280;46916;40.564;-7.958;2023-09-08T10:25:29;97345.22;;;23.01;66.82
61035;BME280;46916;40.564;-7.958;2023-09-08T10:27:33;97343.59;;;22.99;66.73
61035;BME280;46916;40.564;-7.958;2023-09-08T10:29:34;97353.25;;;23.01;66.95
61035;BME280;46916;40.564;-7.958;2023-09-08T10:31:36;97352.66;;;22.98;66.77
61035;BME280;46916;40.564;-7.958;2023-09-08T10:33:37;97344.81;;;22.97;66.72
61035;BME280;46916;40.564;-7.958;2023-09-08T10:35:39;97350.16;;;22.97;66.48
61035;BME280;46916;40.564;-7.958;2023-09-08T10:37:40;97345.25;;;22.94;66.21
61035;BME280;46916;40.564;-7.958;2023-09-08T10:39:41;97343.59;;;22.93;66.44